臺北飛航情報區 - 海峽席

METAR RCTP 271200Z 04024KT 9999 FEW010 BKN016 BKN025 21/17 Q1022 NOSIG RMK A3020=

站台狀態:Online
最後更新:2020-11-27 20:00:01